createdAt,value
2018-08-25T00:01:47.776Z,23.60
2018-08-25T00:04:17.343Z,23.60
2018-08-25T00:06:46.826Z,23.60
2018-08-25T00:09:16.261Z,23.50
2018-08-25T00:11:45.740Z,23.50
2018-08-25T00:14:15.082Z,23.50
2018-08-25T00:16:44.636Z,23.50
2018-08-25T00:19:14.151Z,23.50
2018-08-25T00:21:43.562Z,23.50
2018-08-25T00:24:12.916Z,23.50
2018-08-25T00:26:42.329Z,23.40
2018-08-25T00:29:11.799Z,23.40
2018-08-25T00:31:41.223Z,23.40
2018-08-25T00:34:10.746Z,23.40
2018-08-25T00:36:40.190Z,23.30
2018-08-25T00:39:09.970Z,23.30
2018-08-25T00:41:39.367Z,23.30
2018-08-25T00:44:08.749Z,23.30
2018-08-25T00:46:38.189Z,23.30
2018-08-25T00:49:07.755Z,23.30
2018-08-25T00:51:37.345Z,23.30
2018-08-25T00:54:06.774Z,23.30
2018-08-25T00:56:36.245Z,23.30
2018-08-25T00:59:05.904Z,23.30
2018-08-25T01:01:35.473Z,23.30
2018-08-25T01:04:05.008Z,23.30
2018-08-25T01:06:34.634Z,23.30
2018-08-25T01:09:04.948Z,23.20
2018-08-25T01:11:34.442Z,23.20
2018-08-25T01:14:03.792Z,23.20
2018-08-25T01:16:33.283Z,23.20
2018-08-25T01:19:03.572Z,23.20
2018-08-25T01:21:33.025Z,23.20
2018-08-25T01:24:02.493Z,23.10
2018-08-25T01:26:31.929Z,23.10
2018-08-25T01:29:01.805Z,23.10
2018-08-25T01:31:31.376Z,23.10
2018-08-25T01:34:01.778Z,23.10
2018-08-25T01:36:31.125Z,23.10
2018-08-25T01:39:00.585Z,23.10
2018-08-25T01:41:29.907Z,23.10
2018-08-25T01:43:59.254Z,23.10
2018-08-25T01:46:28.574Z,23.10
2018-08-25T01:48:57.947Z,23.00
2018-08-25T01:51:27.279Z,23.00
2018-08-25T01:53:56.599Z,23.00
2018-08-25T01:56:25.956Z,23.00
2018-08-25T01:58:55.428Z,23.00
2018-08-25T02:01:24.856Z,23.00
2018-08-25T02:03:54.364Z,23.00
2018-08-25T02:06:23.753Z,23.00
2018-08-25T02:08:53.059Z,23.00
2018-08-25T02:11:22.517Z,23.00
2018-08-25T02:13:51.840Z,23.00
2018-08-25T02:16:21.213Z,23.00
2018-08-25T02:18:50.527Z,22.90
2018-08-25T02:21:20.098Z,23.00
2018-08-25T02:23:49.478Z,23.00
2018-08-25T02:26:18.953Z,23.00
2018-08-25T02:28:48.414Z,23.00
2018-08-25T02:31:17.908Z,22.90
2018-08-25T02:33:47.851Z,22.90
2018-08-25T02:36:17.559Z,23.00
2018-08-25T02:38:47.575Z,22.90
2018-08-25T02:41:16.914Z,22.90
2018-08-25T02:43:46.297Z,22.90
2018-08-25T02:46:15.713Z,22.90
2018-08-25T02:48:45.159Z,22.90
2018-08-25T02:51:14.603Z,22.90
2018-08-25T02:53:44.076Z,22.90
2018-08-25T02:56:13.535Z,22.80
2018-08-25T02:58:42.965Z,22.80
2018-08-25T03:01:12.434Z,22.80
2018-08-25T03:03:41.941Z,22.80
2018-08-25T03:06:11.344Z,22.80
2018-08-25T03:08:40.707Z,22.80
2018-08-25T03:11:10.262Z,22.80
2018-08-25T03:13:39.643Z,22.70
2018-08-25T03:16:08.949Z,22.70
2018-08-25T03:18:38.396Z,22.70
2018-08-25T03:21:08.148Z,22.70
2018-08-25T03:23:37.622Z,22.70
2018-08-25T03:26:07.050Z,22.70
2018-08-25T03:28:36.432Z,22.70
2018-08-25T03:31:05.897Z,22.60
2018-08-25T03:33:35.323Z,22.60
2018-08-25T03:36:04.688Z,22.60
2018-08-25T03:38:34.038Z,22.60
2018-08-25T03:41:03.492Z,22.60
2018-08-25T03:43:32.832Z,22.50
2018-08-25T03:46:02.145Z,22.50
2018-08-25T03:48:31.566Z,22.50
2018-08-25T03:51:00.908Z,22.50
2018-08-25T03:53:30.216Z,22.50
2018-08-25T03:55:59.630Z,22.50
2018-08-25T03:58:29.105Z,22.50
2018-08-25T04:00:58.504Z,22.50
2018-08-25T04:03:27.999Z,22.50
2018-08-25T04:05:57.357Z,22.50
2018-08-25T04:08:26.857Z,22.50
2018-08-25T04:10:56.189Z,22.50
2018-08-25T04:13:26.563Z,22.50
2018-08-25T04:15:55.960Z,22.50
2018-08-25T04:18:25.471Z,22.40
2018-08-25T04:20:54.814Z,22.40
2018-08-25T04:23:24.501Z,22.40
2018-08-25T04:25:53.896Z,22.40
2018-08-25T04:28:23.510Z,22.40
2018-08-25T04:30:53.033Z,22.40
2018-08-25T04:33:22.465Z,22.40
2018-08-25T04:35:51.881Z,22.40
2018-08-25T04:38:21.384Z,22.30
2018-08-25T04:40:50.756Z,22.30
2018-08-25T04:43:20.207Z,22.30
2018-08-25T04:45:49.647Z,22.20
2018-08-25T04:48:19.173Z,22.20
2018-08-25T04:50:48.681Z,22.20
2018-08-25T04:53:18.132Z,22.20
2018-08-25T04:55:47.619Z,22.20
2018-08-25T04:58:17.170Z,22.20
2018-08-25T05:00:46.615Z,22.20
2018-08-25T05:03:16.023Z,22.20
2018-08-25T05:05:45.376Z,22.20
2018-08-25T05:08:14.699Z,22.20
2018-08-25T05:10:44.033Z,22.20
2018-08-25T05:13:13.413Z,22.20
2018-08-25T05:15:42.774Z,22.20
2018-08-25T05:18:12.182Z,22.20
2018-08-25T05:20:41.538Z,22.10
2018-08-25T05:23:10.881Z,22.20
2018-08-25T05:25:40.237Z,22.10
2018-08-25T05:28:09.558Z,22.10
2018-08-25T05:30:39.019Z,22.10
2018-08-25T05:33:08.335Z,22.10
2018-08-25T05:35:37.674Z,22.10
2018-08-25T05:38:07.037Z,22.10
2018-08-25T05:40:36.430Z,22.10
2018-08-25T05:43:05.924Z,22.10
2018-08-25T05:45:35.285Z,22.10
2018-08-25T05:48:04.836Z,22.10
2018-08-25T05:50:34.204Z,22.10
2018-08-25T05:53:03.911Z,22.10
2018-08-25T05:55:33.366Z,22.20
2018-08-25T05:58:02.852Z,22.20
2018-08-25T06:00:32.182Z,22.20
2018-08-25T06:03:01.683Z,22.20
2018-08-25T06:05:31.064Z,22.20
2018-08-25T06:08:01.013Z,22.20
2018-08-25T06:10:30.609Z,22.20
2018-08-25T06:12:59.947Z,22.20
2018-08-25T06:15:29.302Z,22.20
2018-08-25T06:17:58.731Z,22.20
2018-08-25T06:20:28.087Z,22.20
2018-08-25T06:22:57.645Z,22.20
2018-08-25T06:25:27.234Z,22.30
2018-08-25T06:27:56.650Z,22.30
2018-08-25T06:30:25.982Z,22.30
2018-08-25T06:32:56.261Z,22.30
2018-08-25T06:35:25.666Z,22.30
2018-08-25T06:37:55.052Z,22.40
2018-08-25T06:40:24.410Z,22.40
2018-08-25T06:42:53.943Z,22.40
2018-08-25T06:45:23.281Z,22.40
2018-08-25T06:47:52.749Z,22.40
2018-08-25T06:50:22.171Z,22.50
2018-08-25T06:52:51.548Z,22.50
2018-08-25T06:55:20.877Z,22.60
2018-08-25T06:57:50.312Z,22.60
2018-08-25T07:00:19.623Z,22.70
2018-08-25T07:02:49.211Z,22.70
2018-08-25T07:05:18.965Z,22.80
2018-08-25T07:07:49.048Z,22.80
2018-08-25T07:10:19.471Z,22.90
2018-08-25T07:12:49.294Z,22.90
2018-08-25T07:15:18.770Z,22.90
2018-08-25T07:17:48.265Z,23.00
2018-08-25T07:20:17.678Z,23.00
2018-08-25T07:22:47.214Z,23.00
2018-08-25T07:25:16.702Z,23.10
2018-08-25T07:27:46.227Z,23.10
2018-08-25T07:30:15.651Z,23.10
2018-08-25T07:32:45.109Z,23.10
2018-08-25T07:35:14.602Z,23.10
2018-08-25T07:37:43.953Z,23.20
2018-08-25T07:40:13.702Z,23.20
2018-08-25T07:42:43.152Z,23.20
2018-08-25T07:45:12.612Z,23.30
2018-08-25T07:47:42.341Z,23.30
2018-08-25T07:50:11.798Z,23.40
2018-08-25T07:52:41.126Z,23.50
2018-08-25T07:55:10.818Z,23.50
2018-08-25T07:57:40.178Z,23.60
2018-08-25T08:00:09.759Z,23.70
2018-08-25T08:02:39.388Z,23.70
2018-08-25T08:05:08.972Z,23.80
2018-08-25T08:07:38.558Z,23.80
2018-08-25T08:10:09.081Z,23.90
2018-08-25T08:12:38.604Z,23.90
2018-08-25T08:15:08.268Z,23.90
2018-08-25T08:17:37.692Z,24.00
2018-08-25T08:20:07.150Z,24.00
2018-08-25T08:22:36.545Z,24.00
2018-08-25T08:25:05.953Z,24.10
2018-08-25T08:27:35.413Z,24.10
2018-08-25T08:30:05.677Z,24.10
2018-08-25T08:32:35.175Z,24.20
2018-08-25T08:35:04.565Z,24.30
2018-08-25T08:37:33.984Z,24.40
2018-08-25T08:40:03.442Z,24.40
2018-08-25T08:42:32.822Z,24.50
2018-08-25T08:45:02.180Z,24.60
2018-08-25T08:47:31.816Z,24.70
2018-08-25T08:50:01.387Z,24.80
2018-08-25T08:52:30.723Z,24.90
2018-08-25T08:55:00.253Z,25.00
2018-08-25T08:57:29.797Z,25.10
2018-08-25T08:59:59.309Z,25.20
2018-08-25T09:02:28.751Z,25.30
2018-08-25T09:04:58.261Z,25.40
2018-08-25T09:07:34.376Z,25.50
2018-08-25T09:10:03.954Z,25.50
2018-08-25T09:12:33.718Z,25.60
2018-08-25T09:15:03.204Z,25.60
2018-08-25T09:17:32.841Z,25.70
2018-08-25T09:20:02.355Z,25.70
2018-08-25T09:22:32.518Z,25.70
2018-08-25T09:25:01.861Z,25.70
2018-08-25T09:27:31.297Z,25.70
2018-08-25T09:30:00.686Z,25.70
2018-08-25T09:32:31.190Z,25.70
2018-08-25T09:35:00.676Z,25.70
2018-08-25T09:37:30.169Z,25.70
2018-08-25T09:39:59.694Z,25.70
2018-08-25T09:42:29.129Z,25.70
2018-08-25T09:44:58.644Z,25.70
2018-08-25T09:47:28.257Z,25.70
2018-08-25T09:49:58.367Z,25.60
2018-08-25T09:52:27.873Z,25.60
2018-08-25T09:54:57.238Z,25.60
2018-08-25T09:57:26.605Z,25.60
2018-08-25T09:59:56.024Z,25.60
2018-08-25T10:02:25.442Z,25.60
2018-08-25T10:04:54.887Z,25.60
2018-08-25T10:07:24.259Z,25.60
2018-08-25T10:09:53.804Z,25.60
2018-08-25T10:12:23.198Z,25.60
2018-08-25T10:14:52.591Z,25.60
2018-08-25T10:17:21.958Z,25.60
2018-08-25T10:19:51.453Z,25.60
2018-08-25T10:22:20.850Z,25.60
2018-08-25T10:24:50.707Z,25.60
2018-08-25T10:27:20.193Z,25.60
2018-08-25T10:29:49.768Z,25.70
2018-08-25T10:32:19.141Z,25.70
2018-08-25T10:34:48.476Z,25.70
2018-08-25T10:37:17.845Z,25.70
2018-08-25T10:39:47.173Z,25.70
2018-08-25T10:42:16.636Z,25.70
2018-08-25T10:44:46.017Z,25.80
2018-08-25T10:47:15.637Z,25.80
2018-08-25T10:49:44.983Z,25.80
2018-08-25T10:52:14.504Z,25.80
2018-08-25T10:54:50.588Z,25.80
2018-08-25T10:57:20.009Z,25.80
2018-08-25T10:59:49.913Z,25.80
2018-08-25T11:02:25.701Z,25.80
2018-08-25T11:04:55.127Z,25.90
2018-08-25T11:07:25.319Z,25.90
2018-08-25T11:09:55.152Z,25.90
2018-08-25T11:12:24.573Z,25.90
2018-08-25T11:14:54.052Z,25.90
2018-08-25T11:17:23.597Z,25.90
2018-08-25T11:19:52.981Z,25.90
2018-08-25T11:22:22.436Z,26.00
2018-08-25T11:24:51.840Z,26.00
2018-08-25T11:27:21.379Z,26.00
2018-08-25T11:29:50.892Z,26.00
2018-08-25T11:32:20.405Z,26.00
2018-08-25T11:34:49.905Z,26.00
2018-08-25T11:37:19.576Z,25.90
2018-08-25T11:39:48.865Z,25.90
2018-08-25T11:42:18.342Z,25.90
2018-08-25T11:44:47.824Z,25.90
2018-08-25T11:47:18.407Z,25.90
2018-08-25T11:49:48.358Z,25.90
2018-08-25T11:52:17.845Z,25.90
2018-08-25T11:54:48.333Z,25.90
2018-08-25T11:57:17.740Z,25.90
2018-08-25T11:59:47.092Z,25.90
2018-08-25T12:02:16.558Z,25.80
2018-08-25T12:04:45.867Z,25.80
2018-08-25T12:07:15.218Z,25.80
2018-08-25T12:09:44.666Z,25.80
2018-08-25T12:12:13.985Z,25.80
2018-08-25T12:14:43.420Z,25.70
2018-08-25T12:17:12.761Z,25.70
2018-08-25T12:19:42.202Z,25.70
2018-08-25T12:22:11.701Z,25.70
2018-08-25T12:24:41.238Z,25.70
2018-08-25T12:27:10.596Z,25.70
2018-08-25T12:29:39.941Z,25.70
2018-08-25T12:32:09.499Z,25.70
2018-08-25T12:34:39.089Z,25.60
2018-08-25T12:37:09.481Z,25.60
2018-08-25T12:39:38.936Z,25.60
2018-08-25T12:42:08.287Z,25.60
2018-08-25T12:44:37.781Z,25.60
2018-08-25T12:47:07.168Z,25.60
2018-08-25T12:49:36.659Z,25.50
2018-08-25T12:52:06.255Z,25.50
2018-08-25T12:54:35.887Z,25.50
2018-08-25T12:57:05.347Z,25.50
2018-08-25T12:59:34.741Z,25.50
2018-08-25T13:02:04.301Z,25.50
2018-08-25T13:04:33.827Z,25.50
2018-08-25T13:07:03.220Z,25.50
2018-08-25T13:09:32.562Z,25.50
2018-08-25T13:12:01.913Z,25.50
2018-08-25T13:14:31.324Z,25.50
2018-08-25T13:17:00.686Z,25.50
2018-08-25T13:19:30.037Z,25.40
2018-08-25T13:21:59.400Z,25.40
2018-08-25T13:24:28.782Z,25.40
2018-08-25T13:26:58.111Z,25.40
2018-08-25T13:29:27.478Z,25.40
2018-08-25T13:31:57.061Z,25.40
2018-08-25T13:34:26.408Z,25.30
2018-08-25T13:36:55.785Z,25.30
2018-08-25T13:39:25.175Z,25.30
2018-08-25T13:41:54.638Z,25.30
2018-08-25T13:44:24.023Z,25.30
2018-08-25T13:46:53.594Z,25.30
2018-08-25T13:49:23.109Z,25.20
2018-08-25T13:51:52.448Z,25.20
2018-08-25T13:54:21.820Z,25.20
2018-08-25T13:56:51.310Z,25.20
2018-08-25T13:59:20.786Z,25.20
2018-08-25T14:01:50.231Z,25.20
2018-08-25T14:04:19.670Z,25.20
2018-08-25T14:06:49.736Z,25.20
2018-08-25T14:09:19.253Z,25.20
2018-08-25T14:11:48.650Z,25.20
2018-08-25T14:14:18.061Z,25.20
2018-08-25T14:16:47.577Z,25.10
2018-08-25T14:19:16.951Z,25.20
2018-08-25T14:21:46.360Z,25.20
2018-08-25T14:24:15.917Z,25.10
2018-08-25T14:26:45.257Z,25.10
2018-08-25T14:29:14.800Z,25.10
2018-08-25T14:31:44.175Z,25.10
2018-08-25T14:34:13.658Z,25.10
2018-08-25T14:36:43.186Z,25.00
2018-08-25T14:39:13.108Z,25.00
2018-08-25T14:41:42.644Z,25.00
2018-08-25T14:44:12.024Z,25.00
2018-08-25T14:46:41.503Z,25.00
2018-08-25T14:49:10.945Z,25.00
2018-08-25T14:51:40.499Z,25.00
2018-08-25T14:54:10.021Z,24.90
2018-08-25T14:56:39.590Z,24.90
2018-08-25T14:59:09.003Z,24.90
2018-08-25T15:01:38.417Z,24.90
2018-08-25T15:04:07.951Z,24.90
2018-08-25T15:06:37.389Z,24.90
2018-08-25T15:09:12.049Z,24.90
2018-08-25T15:11:41.884Z,24.90
2018-08-25T15:14:11.454Z,24.90
2018-08-25T15:16:41.134Z,24.90
2018-08-25T15:19:10.994Z,24.90
2018-08-25T15:21:40.404Z,24.90
2018-08-25T15:24:09.887Z,24.90
2018-08-25T15:26:39.259Z,24.90
2018-08-25T15:29:08.662Z,24.90
2018-08-25T15:31:38.098Z,24.80
2018-08-25T15:34:08.705Z,24.80
2018-08-25T15:36:38.247Z,24.80
2018-08-25T15:39:13.505Z,24.80
2018-08-25T15:41:43.370Z,24.80
2018-08-25T15:44:13.128Z,24.80
2018-08-25T15:46:42.710Z,24.80
2018-08-25T15:49:12.205Z,24.80
2018-08-25T15:51:41.688Z,24.80
2018-08-25T15:54:14.269Z,24.80
2018-08-25T15:56:43.659Z,24.80
2018-08-25T15:59:13.161Z,24.80
2018-08-25T16:01:42.641Z,24.70
2018-08-25T16:04:12.203Z,24.70
2018-08-25T16:06:41.565Z,24.70
2018-08-25T16:09:11.565Z,24.70
2018-08-25T16:11:41.132Z,24.70
2018-08-25T16:14:10.465Z,24.70
2018-08-25T16:16:39.852Z,24.70
2018-08-25T16:19:09.338Z,24.70
2018-08-25T16:21:38.680Z,24.70
2018-08-25T16:24:08.075Z,24.70
2018-08-25T16:26:37.488Z,24.70
2018-08-25T16:29:07.951Z,24.70
2018-08-25T16:31:37.283Z,24.60
2018-08-25T16:34:06.882Z,24.60
2018-08-25T16:36:36.211Z,24.60
2018-08-25T16:39:07.165Z,24.60
2018-08-25T16:41:37.028Z,24.60
2018-08-25T16:44:06.529Z,24.60
2018-08-25T16:46:35.930Z,24.60
2018-08-25T16:49:05.481Z,24.60
2018-08-25T16:51:34.838Z,24.50
2018-08-25T16:54:04.217Z,24.50
2018-08-25T16:56:34.176Z,24.50
2018-08-25T16:59:03.685Z,24.50
2018-08-25T17:01:33.138Z,24.50
2018-08-25T17:04:02.586Z,24.50
2018-08-25T17:06:31.961Z,24.50
2018-08-25T17:09:01.450Z,24.50
2018-08-25T17:11:30.896Z,24.50
2018-08-25T17:14:00.414Z,24.40
2018-08-25T17:16:29.865Z,24.40
2018-08-25T17:18:59.729Z,24.40
2018-08-25T17:21:29.216Z,24.40
2018-08-25T17:23:58.819Z,24.40
2018-08-25T17:26:28.413Z,24.30
2018-08-25T17:28:57.865Z,24.30
2018-08-25T17:31:27.302Z,24.30
2018-08-25T17:33:56.843Z,24.30
2018-08-25T17:36:26.373Z,24.30
2018-08-25T17:38:55.668Z,24.30
2018-08-25T17:41:25.004Z,24.20
2018-08-25T17:43:54.401Z,24.20
2018-08-25T17:46:23.754Z,24.20
2018-08-25T17:48:53.155Z,24.20
2018-08-25T17:51:22.545Z,24.10
2018-08-25T17:53:51.908Z,24.10
2018-08-25T17:56:21.374Z,24.10
2018-08-25T17:58:50.717Z,24.10
2018-08-25T18:01:20.307Z,24.00
2018-08-25T18:03:49.791Z,24.00
2018-08-25T18:06:19.277Z,24.00
2018-08-25T18:08:48.604Z,24.00
2018-08-25T18:11:18.042Z,23.90
2018-08-25T18:13:47.381Z,23.90
2018-08-25T18:16:16.926Z,23.90
2018-08-25T18:18:46.650Z,23.90
2018-08-25T18:21:16.169Z,23.80
2018-08-25T18:23:45.762Z,23.80
2018-08-25T18:26:15.235Z,23.80
2018-08-25T18:28:44.878Z,23.70
2018-08-25T18:31:14.384Z,23.70
2018-08-25T18:33:43.762Z,23.70
2018-08-25T18:36:13.149Z,23.60
2018-08-25T18:38:43.703Z,23.60
2018-08-25T18:41:13.092Z,23.60
2018-08-25T18:43:42.661Z,23.50
2018-08-25T18:46:12.445Z,23.50
2018-08-25T18:48:41.845Z,23.50
2018-08-25T18:51:11.399Z,23.40
2018-08-25T18:53:40.800Z,23.40
2018-08-25T18:56:10.287Z,23.30
2018-08-25T18:58:39.739Z,23.30
2018-08-25T19:01:09.471Z,23.30
2018-08-25T19:03:39.070Z,23.30
2018-08-25T19:06:08.776Z,23.20
2018-08-25T19:08:38.152Z,23.20
2018-08-25T19:11:07.657Z,23.10
2018-08-25T19:13:37.164Z,23.10
2018-08-25T19:16:06.803Z,23.10
2018-08-25T19:18:37.213Z,23.10
2018-08-25T19:21:06.618Z,23.00
2018-08-25T19:23:36.012Z,23.00
2018-08-25T19:26:05.476Z,23.00
2018-08-25T19:28:35.141Z,22.90
2018-08-25T19:31:04.587Z,22.90
2018-08-25T19:33:34.519Z,22.90
2018-08-25T19:36:03.884Z,22.80
2018-08-25T19:38:34.862Z,22.80
2018-08-25T19:41:05.678Z,22.80
2018-08-25T19:43:35.730Z,22.70
2018-08-25T19:46:05.416Z,22.70
2018-08-25T19:48:35.153Z,22.70
2018-08-25T19:51:04.756Z,22.60
2018-08-25T19:53:34.229Z,22.60
2018-08-25T19:56:06.905Z,22.60
2018-08-25T19:58:36.407Z,22.50
2018-08-25T20:01:06.431Z,22.50
2018-08-25T20:03:35.794Z,22.50
2018-08-25T20:06:05.547Z,22.40
2018-08-25T20:08:34.948Z,22.40
2018-08-25T20:11:04.340Z,22.40
2018-08-25T20:13:33.875Z,22.30
2018-08-25T20:16:03.256Z,22.30
2018-08-25T20:18:32.687Z,22.30
2018-08-25T20:21:02.211Z,22.30
2018-08-25T20:23:31.572Z,22.20
2018-08-25T20:26:01.016Z,22.20
2018-08-25T20:28:30.489Z,22.10
2018-08-25T20:31:00.661Z,22.10
2018-08-25T20:33:29.995Z,22.10
2018-08-25T20:35:59.497Z,22.10
2018-08-25T20:38:28.817Z,22.00
2018-08-25T20:40:58.261Z,22.00
2018-08-25T20:43:27.662Z,22.00
2018-08-25T20:45:57.104Z,22.00
2018-08-25T20:48:26.709Z,21.90
2018-08-25T20:50:56.084Z,21.90
2018-08-25T20:53:25.753Z,21.90
2018-08-25T20:55:55.413Z,21.80
2018-08-25T20:58:24.766Z,21.80
2018-08-25T21:00:54.422Z,21.80
2018-08-25T21:03:23.690Z,21.70
2018-08-25T21:05:53.135Z,21.70
2018-08-25T21:08:22.573Z,21.70
2018-08-25T21:10:52.024Z,21.70
2018-08-25T21:13:21.555Z,21.60
2018-08-25T21:15:51.073Z,21.60
2018-08-25T21:18:20.567Z,21.60
2018-08-25T21:20:49.925Z,21.50
2018-08-25T21:23:19.294Z,21.50
2018-08-25T21:25:48.955Z,21.50
2018-08-25T21:28:18.520Z,21.50
2018-08-25T21:30:48.112Z,21.40
2018-08-25T21:33:17.545Z,21.40
2018-08-25T21:35:47.002Z,21.40
2018-08-25T21:38:16.502Z,21.40
2018-08-25T21:40:46.020Z,21.30
2018-08-25T21:43:15.382Z,21.30
2018-08-25T21:45:44.748Z,21.30
2018-08-25T21:48:14.316Z,21.20
2018-08-25T21:50:43.817Z,21.20
2018-08-25T21:53:13.258Z,21.20
2018-08-25T21:55:42.708Z,21.10
2018-08-25T21:58:12.125Z,21.10
2018-08-25T22:00:46.758Z,21.10
2018-08-25T22:03:16.096Z,21.00
2018-08-25T22:05:45.557Z,21.00
2018-08-25T22:08:15.052Z,21.00
2018-08-25T22:10:44.395Z,21.00
2018-08-25T22:13:13.792Z,20.90
2018-08-25T22:15:43.184Z,20.90
2018-08-25T22:18:12.821Z,20.90
2018-08-25T22:20:42.252Z,20.80
2018-08-25T22:23:12.191Z,20.80
2018-08-25T22:25:41.789Z,20.80
2018-08-25T22:28:11.303Z,20.80
2018-08-25T22:30:40.918Z,20.70
2018-08-25T22:33:10.761Z,20.70
2018-08-25T22:35:40.200Z,20.70
2018-08-25T22:38:09.581Z,20.70
2018-08-25T22:40:39.103Z,20.70
2018-08-25T22:43:08.458Z,20.60
2018-08-25T22:45:38.848Z,20.60
2018-08-25T22:48:08.241Z,20.60
2018-08-25T22:50:37.759Z,20.60
2018-08-25T22:53:07.114Z,20.50
2018-08-25T22:55:36.657Z,20.50
2018-08-25T22:58:06.029Z,20.50
2018-08-25T23:00:35.342Z,20.50
2018-08-25T23:03:04.899Z,20.50
2018-08-25T23:05:34.269Z,20.50
2018-08-25T23:08:03.750Z,20.50
2018-08-25T23:10:33.786Z,20.40
2018-08-25T23:13:03.268Z,20.50
2018-08-25T23:15:33.260Z,20.40
2018-08-25T23:18:02.741Z,20.40
2018-08-25T23:20:32.197Z,20.40
2018-08-25T23:23:01.587Z,20.40
2018-08-25T23:25:31.552Z,20.40
2018-08-25T23:28:01.078Z,20.40
2018-08-25T23:30:30.520Z,20.40
2018-08-25T23:32:59.998Z,20.40
2018-08-25T23:35:29.568Z,20.40
2018-08-25T23:37:59.003Z,20.40
2018-08-25T23:40:28.333Z,20.40
2018-08-25T23:42:57.662Z,20.40
2018-08-25T23:45:27.024Z,20.30
2018-08-25T23:47:56.358Z,20.30
2018-08-25T23:50:25.693Z,20.30
2018-08-25T23:52:55.127Z,20.30
2018-08-25T23:55:24.884Z,20.30
2018-08-25T23:57:54.294Z,20.30
